Time;durP1;ratioP1;P1;durP2;ratioP2;P2;SDS_P1;SDS_P2;PMS_P1;PMS_P2;Temp;Humidity;BMP_temperature;BMP_pressure;BME280_temperature;BME280_humidity;BME280_pressure;Samples;Min_cycle;Max_cycle;Signal;HPM_P1;HPM_P2
2023/09/13 00:01:40;;;;;;;6.00;2.65;;;19.70;99.90;;;;;;5111248;28;20036;-67
2023/09/13 00:04:06;;;;;;;4.72;2.40;;;19.70;99.90;;;;;;5113632;28;20031;-67
2023/09/13 00:06:31;;;;;;;4.50;2.55;;;19.70;99.90;;;;;;5112687;28;20100;-66
2023/09/13 00:08:57;;;;;;;5.32;2.80;;;19.70;99.90;;;;;;5106747;28;20084;-66
2023/09/13 00:11:22;;;;;;;4.72;2.45;;;19.70;99.90;;;;;;5107779;28;20042;-66
2023/09/13 00:13:48;;;;;;;4.22;2.60;;;19.60;99.90;;;;;;5112978;28;20412;-67
2023/09/13 00:16:13;;;;;;;4.20;2.65;;;19.60;99.90;;;;;;5107296;28;20434;-68
2023/09/13 00:18:39;;;;;;;5.78;3.15;;;19.60;99.90;;;;;;5101929;28;20032;-67
2023/09/13 00:21:04;;;;;;;7.38;3.50;;;19.50;99.90;;;;;;5105326;28;20024;-67
2023/09/13 00:23:30;;;;;;;5.75;3.50;;;19.50;99.90;;;;;;5104556;28;20353;-67
2023/09/13 00:25:55;;;;;;;3.45;2.90;;;19.50;99.90;;;;;;5103701;28;20052;-67
2023/09/13 00:28:21;;;;;;;4.38;3.15;;;19.40;99.90;;;;;;5108221;28;20024;-66
2023/09/13 00:30:47;;;;;;;4.28;3.20;;;19.40;99.90;;;;;;5102566;28;20499;-66
2023/09/13 00:33:12;;;;;;;6.80;3.45;;;19.30;99.90;;;;;;5104999;28;20063;-67
2023/09/13 00:35:38;;;;;;;6.47;3.97;;;19.30;99.90;;;;;;5105006;28;20401;-67
2023/09/13 00:38:04;;;;;;;8.48;4.45;;;19.30;99.90;;;;;;5105716;28;20043;-67
2023/09/13 00:40:29;;;;;;;7.35;3.40;;;19.40;99.90;;;;;;5105817;28;20103;-67
2023/09/13 00:42:55;;;;;;;7.65;3.10;;;19.40;99.90;;;;;;5103586;28;20039;-67
2023/09/13 00:45:21;;;;;;;5.43;2.80;;;19.40;99.90;;;;;;5104586;28;20024;-67
2023/09/13 00:47:47;;;;;;;5.43;3.10;;;19.50;99.90;;;;;;5102903;28;20022;-67
2023/09/13 00:50:15;;;;;;;5.50;3.05;;;19.50;99.90;;;;;;5105762;28;20028;-67
2023/09/13 00:52:42;;;;;;;6.53;2.83;;;19.50;99.90;;;;;;5104710;28;20020;-68
2023/09/13 00:55:09;;;;;;;4.43;2.78;;;19.60;99.90;;;;;;5104165;28;20408;-68
2023/09/13 00:57:36;;;;;;;4.95;2.67;;;19.60;99.90;;;;;;5100255;28;20107;-67
2023/09/13 01:00:11;;;;;;;6.93;3.10;;;19.60;99.90;;;;;;5103883;28;20024;-67
2023/09/13 01:02:39;;;;;;;3.35;2.65;;;19.70;99.90;;;;;;5102332;28;20020;-67
2023/09/13 01:05:09;;;;;;;4.40;2.88;;;19.70;99.90;;;;;;5103597;28;20024;-65
2023/09/13 01:07:38;;;;;;;4.20;2.60;;;19.70;99.90;;;;;;5101932;28;20016;-65
2023/09/13 01:10:04;;;;;;;6.57;2.95;;;19.70;99.90;;;;;;5103250;28;20039;-68
2023/09/13 01:12:30;;;;;;;4.25;2.55;;;19.60;99.90;;;;;;5103870;28;20480;-67
2023/09/13 01:14:56;;;;;;;4.40;2.97;;;19.60;99.90;;;;;;5101860;28;20027;-67
2023/09/13 01:17:52;;;;;;;3.97;2.83;;;19.60;99.90;;;;;;5102556;28;20016;-66
2023/09/13 01:20:32;;;;;;;4.82;2.63;;;19.50;99.90;;;;;;5102388;28;20448;-67
2023/09/13 01:23:21;;;;;;;7.15;2.97;;;19.50;99.90;;;;;;5102158;28;20464;-66
2023/09/13 01:26:26;;;;;;;4.82;2.95;;;19.40;99.90;;;;;;5103321;28;20035;-66
2023/09/13 01:28:54;;;;;;;6.40;2.75;;;19.40;99.90;;;;;;5104346;28;20020;-66
2023/09/13 01:31:21;;;;;;;3.83;2.78;;;19.40;99.90;;;;;;5104996;28;20039;-67
2023/09/13 01:33:47;;;;;;;3.85;2.70;;;19.30;99.90;;;;;;5108142;28;20040;-66
2023/09/13 01:36:13;;;;;;;4.18;2.70;;;19.30;99.90;;;;;;5107331;28;20050;-65
2023/09/13 01:38:39;;;;;;;4.28;2.95;;;19.30;99.90;;;;;;5104979;28;20044;-65
2023/09/13 01:41:10;;;;;;;3.70;3.08;;;19.30;99.90;;;;;;5112016;27;20035;-67
2023/09/13 01:43:37;;;;;;;4.63;3.08;;;19.30;99.90;;;;;;5104062;28;20028;-67
2023/09/13 01:46:04;;;;;;;6.35;3.58;;;19.30;99.90;;;;;;5109033;28;20487;-67
2023/09/13 01:48:32;;;;;;;5.88;3.08;;;19.30;99.90;;;;;;5100905;28;20032;-67
2023/09/13 01:50:58;;;;;;;3.33;2.88;;;19.30;99.90;;;;;;5108287;28;20448;-67
2023/09/13 01:53:24;;;;;;;3.92;3.03;;;19.20;99.90;;;;;;5107437;28;20545;-67
2023/09/13 01:55:50;;;;;;;4.47;3.25;;;19.10;99.90;;;;;;5098984;28;20037;-68
2023/09/13 01:58:16;;;;;;;6.18;3.08;;;19.10;99.90;;;;;;5100781;28;20375;-67
2023/09/13 02:00:41;;;;;;;5.10;3.50;;;19.00;99.90;;;;;;5105331;28;20023;-66
2023/09/13 02:03:07;;;;;;;5.40;2.95;;;19.00;99.90;;;;;;5110097;28;20024;-67
2023/09/13 02:05:32;;;;;;;7.80;3.22;;;18.90;99.90;;;;;;5099118;28;20482;-65
2023/09/13 02:07:59;;;;;;;4.45;3.13;;;18.90;99.90;;;;;;5103416;28;20031;-65
2023/09/13 02:10:25;;;;;;;6.22;3.40;;;18.80;99.90;;;;;;5101037;28;20082;-66
2023/09/13 02:12:50;;;;;;;7.13;3.65;;;18.80;99.90;;;;;;5099572;28;20482;-66
2023/09/13 02:15:16;;;;;;;4.45;3.08;;;18.70;99.90;;;;;;5098680;28;20032;-66
2023/09/13 02:17:42;;;;;;;4.80;3.10;;;18.70;99.90;;;;;;5104131;28;20030;-67
2023/09/13 02:20:11;;;;;;;4.90;3.20;;;18.70;99.90;;;;;;5111182;28;20382;-66
2023/09/13 02:22:36;;;;;;;7.55;3.45;;;18.70;99.90;;;;;;5107945;28;20110;-67
2023/09/13 02:25:03;;;;;;;6.50;3.40;;;18.70;99.90;;;;;;5111225;28;20157;-65
2023/09/13 02:27:29;;;;;;;3.63;3.00;;;18.80;99.90;;;;;;5110648;28;20050;-68
2023/09/13 02:29:54;;;;;;;8.15;3.35;;;18.80;99.90;;;;;;5111227;28;20463;-67
2023/09/13 02:32:20;;;;;;;5.95;3.53;;;18.80;99.90;;;;;;5110852;28;20028;-66
2023/09/13 02:34:46;;;;;;;5.30;3.60;;;18.80;99.90;;;;;;5100151;28;20467;-67
2023/09/13 02:37:11;;;;;;;4.07;3.20;;;18.80;99.90;;;;;;5098072;28;20024;-67
2023/09/13 02:39:39;;;;;;;3.72;3.13;;;18.90;99.90;;;;;;5098641;28;20105;-66
2023/09/13 02:42:06;;;;;;;5.75;3.38;;;18.90;99.90;;;;;;5097938;28;20759;-67
2023/09/13 02:44:32;;;;;;;4.57;2.67;;;18.90;99.90;;;;;;5100692;28;20409;-67
2023/09/13 02:46:59;;;;;;;6.53;2.92;;;18.90;99.90;;;;;;5098321;28;20035;-68
2023/09/13 02:49:24;;;;;;;8.02;3.40;;;18.90;99.90;;;;;;5097781;28;20024;-67
2023/09/13 02:51:51;;;;;;;7.70;3.90;;;18.90;99.90;;;;;;5101546;28;20015;-67
2023/09/13 02:54:17;;;;;;;7.28;3.65;;;18.90;99.90;;;;;;5100712;28;20036;-66
2023/09/13 02:56:44;;;;;;;8.52;3.78;;;18.80;99.90;;;;;;5108037;28;20024;-67
2023/09/13 02:59:09;;;;;;;6.28;3.40;;;18.80;99.90;;;;;;5112290;28;20460;-67
2023/09/13 03:01:35;;;;;;;7.63;4.05;;;18.80;99.90;;;;;;5115020;28;20043;-67
2023/09/13 03:04:01;;;;;;;9.32;4.43;;;18.80;99.90;;;;;;5112495;28;20052;-66
2023/09/13 03:06:26;;;;;;;7.03;3.83;;;18.90;99.90;;;;;;5114374;28;20039;-66
2023/09/13 03:08:52;;;;;;;7.18;4.03;;;18.80;99.90;;;;;;5112439;28;20077;-67
2023/09/13 03:11:18;;;;;;;8.07;3.80;;;18.90;99.90;;;;;;5114175;28;20043;-66
2023/09/13 03:13:45;;;;;;;7.90;4.43;;;18.80;99.90;;;;;;5100965;28;20036;-67
2023/09/13 03:16:28;;;;;;;8.30;4.28;;;18.80;99.90;;;;;;5108612;28;20028;-66
2023/09/13 03:18:54;;;;;;;8.35;3.90;;;18.90;99.90;;;;;;5108151;28;20020;-67
2023/09/13 03:21:20;;;;;;;5.68;3.80;;;18.90;99.90;;;;;;5096852;28;20367;-66
2023/09/13 03:23:48;;;;;;;7.43;4.00;;;18.90;99.90;;;;;;5107350;28;20023;-66
2023/09/13 03:26:17;;;;;;;6.47;3.50;;;19.00;99.90;;;;;;5097255;28;20028;-66
2023/09/13 03:28:45;;;;;;;10.32;4.07;;;19.10;99.90;;;;;;5109457;28;20099;-66
2023/09/13 03:31:12;;;;;;;8.88;4.53;;;19.10;99.90;;;;;;5097317;28;22027;-66
2023/09/13 03:33:39;;;;;;;8.80;4.63;;;19.10;99.90;;;;;;5105918;28;20039;-65
2023/09/13 03:36:06;;;;;;;57.03;9.07;;;19.10;99.90;;;;;;5097406;28;20033;-65
2023/09/13 03:38:32;;;;;;;21.55;6.22;;;19.00;99.90;;;;;;5110124;28;20047;-65
2023/09/13 03:40:57;;;;;;;20.38;6.40;;;18.90;99.90;;;;;;5099246;28;20456;-65
2023/09/13 03:43:23;;;;;;;11.57;5.07;;;18.80;99.90;;;;;;5103363;28;20039;-66
2023/09/13 03:45:49;;;;;;;15.02;6.32;;;18.70;99.90;;;;;;5107261;28;20047;-66
2023/09/13 03:48:14;;;;;;;14.93;6.50;;;18.70;99.90;;;;;;5106640;28;20028;-67
2023/09/13 03:50:40;;;;;;;13.73;6.95;;;18.60;99.90;;;;;;5111666;28;20027;-67
2023/09/13 03:53:05;;;;;;;16.67;7.80;;;18.60;99.90;;;;;;5105149;28;20039;-67
2023/09/13 03:55:32;;;;;;;19.50;8.23;;;18.60;99.90;;;;;;5109985;28;20045;-67
2023/09/13 03:57:57;;;;;;;17.58;7.68;;;18.60;99.90;;;;;;5109284;28;20011;-67
2023/09/13 04:00:23;;;;;;;15.65;6.80;;;18.60;99.90;;;;;;5099272;28;20039;-66
2023/09/13 04:02:49;;;;;;;11.55;7.13;;;18.60;99.90;;;;;;5107124;28;20368;-67
2023/09/13 04:05:14;;;;;;;18.25;7.97;;;18.60;99.90;;;;;;5099485;28;20031;-66
2023/09/13 04:07:40;;;;;;;23.33;7.97;;;18.60;99.90;;;;;;5104116;28;20036;-67
2023/09/13 04:10:06;;;;;;;15.80;3.97;;;18.60;99.90;;;;;;5096273;28;20062;-67
2023/09/13 04:12:31;;;;;;;18.85;3.75;;;18.50;99.90;;;;;;5098953;28;20036;-67
2023/09/13 04:14:57;;;;;;;16.30;3.80;;;18.40;99.90;;;;;;5104371;28;20069;-66
2023/09/13 04:17:22;;;;;;;13.40;3.22;;;18.20;99.90;;;;;;5095903;28;20051;-66
2023/09/13 04:19:48;;;;;;;16.83;3.28;;;18.00;99.90;;;;;;5095894;28;20380;-66
2023/09/13 04:22:16;;;;;;;14.15;2.35;;;17.80;99.90;;;;;;5096567;28;20361;-65
2023/09/13 04:24:42;;;;;;;12.65;2.35;;;17.60;99.90;;;;;;5097641;28;20430;-66
2023/09/13 04:27:08;;;;;;;11.52;2.28;;;17.30;99.90;;;;;;5095970;28;20388;-66
2023/09/13 04:29:34;;;;;;;9.68;1.85;;;17.00;99.90;;;;;;5095818;28;20460;-66
2023/09/13 04:31:59;;;;;;;10.20;2.10;;;16.80;99.90;;;;;;5095906;28;20484;-67
2023/09/13 04:34:30;;;;;;;5.90;1.30;;;16.50;99.90;;;;;;5097672;28;20487;-68
2023/09/13 04:36:56;;;;;;;9.35;1.60;;;16.30;99.90;;;;;;5095442;28;20372;-68
2023/09/13 04:39:21;;;;;;;3.25;1.13;;;16.10;99.90;;;;;;5095534;28;20040;-65
2023/09/13 04:41:47;;;;;;;4.35;1.00;;;16.00;99.90;;;;;;5099433;28;20023;-67
2023/09/13 04:44:12;;;;;;;4.43;1.10;;;15.80;99.90;;;;;;5109241;28;20028;-66
2023/09/13 04:46:38;;;;;;;3.50;1.17;;;15.70;99.90;;;;;;5107602;28;20032;-67
2023/09/13 04:49:03;;;;;;;4.38;1.30;;;15.60;99.90;;;;;;5108077;28;20040;-66
2023/09/13 04:51:29;;;;;;;4.20;1.40;;;15.60;99.90;;;;;;5100625;28;20024;-66
2023/09/13 04:53:54;;;;;;;6.30;1.55;;;15.50;99.90;;;;;;5110558;28;20464;-67
2023/09/13 04:56:20;;;;;;;4.32;1.38;;;15.50;99.90;;;;;;5111642;28;20414;-67
2023/09/13 04:58:46;;;;;;;7.00;1.60;;;15.40;99.90;;;;;;5098054;28;20516;-66
2023/09/13 05:01:11;;;;;;;7.78;1.77;;;15.40;99.90;;;;;;5104710;28;20056;-66
2023/09/13 05:03:37;;;;;;;6.93;1.67;;;15.30;99.90;;;;;;5107838;28;20063;-67
2023/09/13 05:06:02;;;;;;;3.60;1.10;;;15.30;99.90;;;;;;5101000;28;20055;-66
2023/09/13 05:08:28;;;;;;;8.98;2.03;;;15.30;99.90;;;;;;5110052;28;20024;-66
2023/09/13 05:10:55;;;;;;;8.13;1.58;;;15.30;99.90;;;;;;5100045;28;20076;-66
2023/09/13 05:13:20;;;;;;;5.05;1.27;;;15.30;99.90;;;;;;5116701;28;20482;-66
2023/09/13 05:15:46;;;;;;;10.25;1.73;;;15.40;99.90;;;;;;5110535;28;20028;-66
2023/09/13 05:18:11;;;;;;;8.70;1.73;;;15.40;99.90;;;;;;5111170;28;20464;-66
2023/09/13 05:20:37;;;;;;;7.55;1.38;;;15.40;99.90;;;;;;5111470;28;20515;-66
2023/09/13 05:23:04;;;;;;;4.47;1.27;;;15.40;99.90;;;;;;5111124;28;20032;-65
2023/09/13 05:25:29;;;;;;;9.43;3.05;;;15.40;99.90;;;;;;5110418;28;20099;-66
2023/09/13 05:27:55;;;;;;;11.38;1.65;;;15.50;99.90;;;;;;5113869;28;20107;-66
2023/09/13 05:30:21;;;;;;;8.68;1.50;;;15.50;99.90;;;;;;5116160;28;20027;-66
2023/09/13 05:32:47;;;;;;;4.28;1.20;;;15.50;99.90;;;;;;5110235;28;20035;-66
2023/09/13 05:35:12;;;;;;;4.88;1.65;;;15.40;99.90;;;;;;5115240;28;20027;-66
2023/09/13 05:37:38;;;;;;;7.60;1.50;;;15.50;99.90;;;;;;5116155;28;20051;-65
2023/09/13 05:40:06;;;;;;;8.95;1.85;;;15.50;99.90;;;;;;5112175;28;20044;-66
2023/09/13 05:42:34;;;;;;;8.52;1.73;;;15.50;99.90;;;;;;5104077;28;20115;-66
2023/09/13 05:45:00;;;;;;;9.80;2.30;;;15.50;99.90;;;;;;5103970;28;20031;-67
2023/09/13 05:47:25;;;;;;;8.02;1.73;;;15.50;99.90;;;;;;5111627;28;20031;-66
2023/09/13 05:49:51;;;;;;;3.67;1.30;;;15.60;99.90;;;;;;5100155;28;20027;-66
2023/09/13 05:52:16;;;;;;;7.95;1.77;;;15.60;99.90;;;;;;5114877;28;20035;-67
2023/09/13 05:54:42;;;;;;;6.40;1.70;;;15.70;99.90;;;;;;5116213;28;20059;-67
2023/09/13 05:57:07;;;;;;;9.70;1.23;;;15.70;99.90;;;;;;5103066;28;20464;-65
2023/09/13 05:59:35;;;;;;;12.98;1.65;;;15.70;99.90;;;;;;5115703;28;20114;-66
2023/09/13 06:02:01;;;;;;;7.00;1.85;;;15.80;99.90;;;;;;5114238;28;20470;-67
2023/09/13 06:04:26;;;;;;;11.02;1.60;;;15.80;99.90;;;;;;5115509;28;20067;-67
2023/09/13 06:06:52;;;;;;;9.27;1.90;;;15.80;99.90;;;;;;5104299;28;20052;-67
2023/09/13 06:09:21;;;;;;;8.90;2.15;;;15.80;99.90;;;;;;5111261;28;20031;-67
2023/09/13 06:11:48;;;;;;;7.75;1.80;;;15.80;99.90;;;;;;5112589;28;20028;-66
2023/09/13 06:14:13;;;;;;;6.68;1.88;;;15.80;99.90;;;;;;5107771;28;20432;-67
2023/09/13 06:16:39;;;;;;;6.50;1.55;;;16.00;99.90;;;;;;5106304;28;20164;-67
2023/09/13 06:19:04;;;;;;;8.93;1.70;;;16.10;99.90;;;;;;5105021;28;20111;-67
2023/09/13 06:21:30;;;;;;;8.55;2.17;;;16.20;99.90;;;;;;5105578;28;20027;-66
2023/09/13 06:23:55;;;;;;;5.32;1.50;;;16.30;99.90;;;;;;5105917;28;20142;-67
2023/09/13 06:26:21;;;;;;;8.95;1.88;;;16.50;99.90;;;;;;5104436;28;20020;-67
2023/09/13 06:28:47;;;;;;;4.47;1.70;;;16.60;99.90;;;;;;5106038;28;20494;-65
2023/09/13 06:31:13;;;;;;;7.13;1.50;;;16.70;99.90;;;;;;5103781;28;20024;-66
2023/09/13 06:33:39;;;;;;;5.78;1.40;;;16.80;99.90;;;;;;5106340;28;20055;-65
2023/09/13 06:36:05;;;;;;;4.32;1.02;;;16.80;99.90;;;;;;5103546;28;20491;-66
2023/09/13 06:38:31;;;;;;;4.68;1.70;;;16.90;99.90;;;;;;5102985;28;20090;-66
2023/09/13 06:40:56;;;;;;;3.45;1.40;;;17.00;99.90;;;;;;5105370;28;20027;-66
2023/09/13 06:43:22;;;;;;;5.10;1.42;;;17.10;99.90;;;;;;5106003;28;20043;-66
2023/09/13 06:45:48;;;;;;;10.13;2.00;;;17.10;99.90;;;;;;5103855;28;20020;-66
2023/09/13 06:48:19;;;;;;;3.38;1.33;;;17.20;99.90;;;;;;5103987;28;20024;-65
2023/09/13 06:50:44;;;;;;;2.20;1.30;;;17.30;99.90;;;;;;5103876;28;20028;-66
2023/09/13 06:53:11;;;;;;;2.42;1.40;;;17.40;99.90;;;;;;5104961;28;20027;-66
2023/09/13 06:55:36;;;;;;;4.05;1.30;;;17.40;99.90;;;;;;5103791;28;20020;-67
2023/09/13 06:58:05;;;;;;;6.25;1.50;;;17.50;99.90;;;;;;5103422;28;20478;-66
2023/09/13 07:00:31;;;;;;;4.50;1.23;;;17.70;99.90;;;;;;5103345;28;20085;-66
2023/09/13 07:02:57;;;;;;;5.97;1.50;;;17.70;99.90;;;;;;5103669;28;20031;-66
2023/09/13 07:05:22;;;;;;;6.05;1.48;;;17.80;99.90;;;;;;5104883;28;20055;-65
2023/09/13 07:07:48;;;;;;;6.22;1.35;;;17.80;99.90;;;;;;5102521;28;20361;-67
2023/09/13 07:10:13;;;;;;;3.50;1.30;;;17.90;99.90;;;;;;5103948;28;20093;-65
2023/09/13 07:12:39;;;;;;;5.85;1.50;;;18.00;99.90;;;;;;5104302;28;20036;-66
2023/09/13 07:15:07;;;;;;;4.25;1.45;;;18.10;99.90;;;;;;5102713;28;20026;-66
2023/09/13 07:17:33;;;;;;;5.22;1.73;;;18.20;99.90;;;;;;5103150;28;20028;-66
2023/09/13 07:19:59;;;;;;;5.35;1.40;;;18.30;99.90;;;;;;5103949;28;20034;-66
2023/09/13 07:22:24;;;;;;;6.22;1.63;;;18.40;99.90;;;;;;5104657;28;20024;-66
2023/09/13 07:24:51;;;;;;;7.32;1.58;;;18.50;99.90;;;;;;5102384;28;20028;-66
2023/09/13 07:27:16;;;;;;;4.30;1.30;;;18.70;99.90;;;;;;5101532;28;20024;-65
2023/09/13 07:29:42;;;;;;;4.00;1.55;;;19.00;99.90;;;;;;5105215;28;20371;-65
2023/09/13 07:32:08;;;;;;;7.35;1.75;;;19.30;99.90;;;;;;5104815;28;20035;-65
2023/09/13 07:34:33;;;;;;;6.40;1.50;;;19.70;99.90;;;;;;5112203;28;20027;-66
2023/09/13 07:36:59;;;;;;;7.65;1.83;;;20.10;99.90;;;;;;5105362;28;20090;-66
2023/09/13 07:39:24;;;;;;;3.60;1.48;;;20.20;99.90;;;;;;5101950;28;20101;-66
2023/09/13 07:41:50;;;;;;;5.00;1.70;;;20.10;99.90;;;;;;5105585;28;20027;-66
2023/09/13 07:44:17;;;;;;;3.05;1.48;;;20.10;99.90;;;;;;5103489;28;20077;-66
2023/09/13 07:46:43;;;;;;;6.72;1.88;;;20.00;99.90;;;;;;5105757;28;20095;-66
2023/09/13 07:49:08;;;;;;;7.90;1.98;;;20.00;99.90;;;;;;5099104;28;20059;-66
2023/09/13 07:51:34;;;;;;;4.32;1.80;;;20.00;99.90;;;;;;5108446;28;20464;-65
2023/09/13 07:54:04;;;;;;;5.93;1.67;;;19.90;99.90;;;;;;5103220;28;20080;-65
2023/09/13 07:56:31;;;;;;;4.38;1.80;;;19.90;99.90;;;;;;5104683;28;20036;-65
2023/09/13 07:58:57;;;;;;;7.00;2.22;;;19.80;99.90;;;;;;5103674;28;20050;-66
2023/09/13 08:01:22;;;;;;;3.47;1.75;;;20.00;99.90;;;;;;5104347;28;20016;-65
2023/09/13 08:03:48;;;;;;;3.30;1.85;;;20.30;99.90;;;;;;5104328;28;20040;-66
2023/09/13 08:06:13;;;;;;;3.00;1.33;;;20.50;99.90;;;;;;5104392;28;20016;-66
2023/09/13 08:08:39;;;;;;;2.53;1.40;;;20.50;99.90;;;;;;5103466;28;20120;-65
2023/09/13 08:11:04;;;;;;;6.43;1.92;;;20.60;99.90;;;;;;5104538;28;20106;-65
2023/09/13 08:13:30;;;;;;;4.50;2.03;;;20.60;99.90;;;;;;5101872;28;20059;-65
2023/09/13 08:15:55;;;;;;;3.17;1.40;;;20.60;99.90;;;;;;5104772;28;20073;-65
2023/09/13 08:18:21;;;;;;;3.58;1.80;;;20.80;99.90;;;;;;5103571;28;20023;-67
2023/09/13 08:20:47;;;;;;;3.85;1.40;;;20.80;99.90;;;;;;5104390;28;20024;-66
2023/09/13 08:23:12;;;;;;;4.03;1.40;;;20.80;99.90;;;;;;5103239;28;20464;-65
2023/09/13 08:25:39;;;;;;;2.83;1.40;;;20.80;99.90;;;;;;5103605;28;20043;-65
2023/09/13 08:28:05;;;;;;;3.33;1.50;;;20.70;99.90;;;;;;5103522;28;20036;-65
2023/09/13 08:30:30;;;;;;;3.50;1.13;;;20.70;99.90;;;;;;5098700;28;20032;-66
2023/09/13 08:32:56;;;;;;;3.28;1.20;;;20.80;99.90;;;;;;5103567;28;20034;-67
2023/09/13 08:35:21;;;;;;;5.53;1.00;;;20.70;99.90;;;;;;5108667;28;20027;-65
2023/09/13 08:37:48;;;;;;;2.60;1.30;;;20.70;99.90;;;;;;5108927;28;20391;-66
2023/09/13 08:40:13;;;;;;;5.50;1.83;;;20.70;99.90;;;;;;5108403;28;20039;-66
2023/09/13 08:42:42;;;;;;;2.08;1.15;;;20.90;99.90;;;;;;5109109;28;20036;-67
2023/09/13 08:45:09;;;;;;;3.20;1.13;;;21.20;99.90;;;;;;5112716;28;20055;-65
2023/09/13 08:47:38;;;;;;;2.28;0.82;;;21.30;99.90;;;;;;5110408;28;20015;-65
2023/09/13 08:50:06;;;;;;;2.90;1.10;;;21.10;99.90;;;;;;5106772;28;20039;-66
2023/09/13 08:52:35;;;;;;;2.83;1.00;;;21.00;99.90;;;;;;5107872;28;20024;-66
2023/09/13 08:55:01;;;;;;;4.15;1.15;;;22.00;99.90;;;;;;5111069;28;20168;-66
2023/09/13 08:57:28;;;;;;;6.20;1.27;;;23.10;99.90;;;;;;5112609;28;20098;-67
2023/09/13 08:59:53;;;;;;;2.53;0.93;;;23.50;99.90;;;;;;5106726;28;20030;-66
2023/09/13 09:02:23;;;;;;;2.63;1.00;;;23.80;99.90;;;;;;5107370;28;20019;-66
2023/09/13 09:04:50;;;;;;;3.90;0.85;;;24.10;99.90;;;;;;5105801;28;20491;-65
2023/09/13 09:07:18;;;;;;;1.13;0.60;;;24.20;99.90;;;;;;5106855;28;20028;-66
2023/09/13 09:09:46;;;;;;;4.25;1.13;;;23.80;99.90;;;;;;5107418;28;20020;-66
2023/09/13 09:12:13;;;;;;;4.03;1.40;;;23.80;99.90;;;;;;5110160;28;20528;-65
2023/09/13 09:14:42;;;;;;;1.52;0.70;;;24.10;99.90;;;;;;5108780;28;20057;-66
2023/09/13 09:17:08;;;;;;;6.70;0.98;;;23.90;99.90;;;;;;5109180;28;20399;-66
2023/09/13 09:19:34;;;;;;;2.35;0.80;;;23.40;99.90;;;;;;5110262;28;20019;-66
2023/09/13 09:22:01;;;;;;;4.13;1.15;;;22.80;99.90;;;;;;5112866;28;20032;-66
2023/09/13 09:24:29;;;;;;;2.88;0.88;;;21.90;99.90;;;;;;5111754;28;20097;-64
2023/09/13 09:26:55;;;;;;;4.40;1.10;;;21.00;99.90;;;;;;5105849;28;20027;-65
2023/09/13 09:29:36;;;;;;;1.73;0.85;;;20.00;99.90;;;;;;5103354;28;20262;-66
2023/09/13 09:32:05;;;;;;;4.90;1.20;;;19.40;99.90;;;;;;5105548;28;20031;-65
2023/09/13 09:34:31;;;;;;;4.35;1.15;;;19.30;99.90;;;;;;5111847;28;20487;-66
2023/09/13 09:37:04;;;;;;;3.42;1.17;;;19.50;99.90;;;;;;5112384;27;20030;-66
2023/09/13 09:39:30;;;;;;;5.05;1.02;;;20.10;99.90;;;;;;5109967;28;20072;-67
2023/09/13 09:41:59;;;;;;;3.90;1.05;;;20.40;99.90;;;;;;5110794;28;20035;-66
2023/09/13 09:44:28;;;;;;;3.47;0.90;;;20.50;99.90;;;;;;5107219;28;20399;-67
2023/09/13 09:46:54;;;;;;;4.57;1.33;;;20.70;99.90;;;;;;5107133;28;20031;-66
2023/09/13 09:49:20;;;;;;;4.72;1.17;;;20.70;99.90;;;;;;5104971;28;20035;-66
2023/09/13 09:51:46;;;;;;;4.10;1.00;;;20.60;99.90;;;;;;5107741;28;20027;-66
2023/09/13 09:54:11;;;;;;;7.32;2.17;;;20.40;99.90;;;;;;5104789;28;20028;-65
2023/09/13 09:56:37;;;;;;;10.57;2.22;;;19.90;99.90;;;;;;5108508;28;20070;-64
2023/09/13 09:59:03;;;;;;;6.82;2.40;;;19.10;99.90;;;;;;5109987;28;20090;-64
2023/09/13 10:01:29;;;;;;;12.20;3.17;;;18.30;99.90;;;;;;5106135;28;20023;-65
2023/09/13 10:03:59;;;;;;;10.85;2.95;;;18.00;99.90;;;;;;5105861;28;20028;-65
2023/09/13 10:06:24;;;;;;;9.00;3.40;;;17.90;99.90;;;;;;5104709;28;20020;-65
2023/09/13 10:08:50;;;;;;;10.07;3.28;;;18.20;99.90;;;;;;5108485;28;20383;-65
2023/09/13 10:11:19;;;;;;;10.48;3.30;;;19.10;99.90;;;;;;5108843;28;20030;-65
2023/09/13 10:13:58;;;;;;;9.88;2.83;;;19.90;99.90;;;;;;5111773;28;20156;-66
2023/09/13 10:16:30;;;;;;;8.85;2.70;;;20.70;99.90;;;;;;5108790;28;20035;-66
2023/09/13 10:19:02;;;;;;;7.55;2.67;;;21.40;99.90;;;;;;5106123;28;20031;-66
2023/09/13 10:21:32;;;;;;;;;;;22.00;99.90;;;;;;5104513;28;20119;-66
2023/09/13 10:24:06;;;;;;;5.25;2.30;;;22.50;99.90;;;;;;5106215;28;20291;-66
2023/09/13 10:26:33;;;;;;;5.82;2.40;;;22.70;99.90;;;;;;5104771;28;20035;-65
2023/09/13 10:29:09;;;;;;;8.57;2.50;;;22.80;99.90;;;;;;5104279;28;20024;-66
2023/09/13 10:31:41;;;;;;;6.32;2.65;;;22.80;99.90;;;;;;5096696;28;20430;-66
2023/09/13 10:34:08;;;;;;;;;;;22.70;99.90;;;;;;5095063;28;20035;-66
2023/09/13 10:36:41;;;;;;;7.18;2.92;;;22.70;99.60;;;;;;5093276;28;19958;-66
2023/09/13 10:39:16;;;;;;;9.35;2.90;;;22.60;99.90;;;;;;5094203;28;20063;-67
2023/09/13 10:41:49;;;;;;;7.00;2.72;;;22.50;99.20;;;;;;5093849;28;20039;-66
2023/09/13 10:44:15;;;;;;;12.07;3.40;;;22.40;98.70;;;;;;5094295;28;20127;-67
2023/09/13 10:46:42;;;;;;;8.68;3.13;;;22.30;98.90;;;;;;5094662;28;20047;-67
2023/09/13 10:49:07;;;;;;;10.77;3.00;;;22.30;99.00;;;;;;5095030;28;20027;-66
2023/09/13 10:51:34;;;;;;;6.15;2.70;;;22.30;98.60;;;;;;5093843;28;20077;-66
2023/09/13 10:54:02;;;;;;;7.97;3.25;;;22.30;98.60;;;;;;5092841;28;20500;-66
2023/09/13 10:56:28;;;;;;;8.50;3.05;;;22.40;98.00;;;;;;5092795;28;20028;-66
2023/09/13 10:58:55;;;;;;;8.13;2.70;;;22.30;98.20;;;;;;5092872;28;20024;-66
2023/09/13 11:01:22;;;;;;;9.23;2.90;;;22.40;97.80;;;;;;5091947;28;20472;-66
2023/09/13 11:03:48;;;;;;;10.52;3.08;;;22.40;97.60;;;;;;5092481;28;20053;-66
2023/09/13 11:06:14;;;;;;;7.45;2.90;;;22.30;97.60;;;;;;5092298;28;20065;-67
2023/09/13 11:08:40;;;;;;;7.57;1.90;;;22.40;98.30;;;;;;5094329;28;20024;-66
2023/09/13 11:11:16;;;;;;;8.75;2.95;;;22.40;96.70;;;;;;5094930;28;20582;-66
2023/09/13 11:13:44;;;;;;;6.45;2.22;;;22.40;97.40;;;;;;5094529;28;20043;-65
2023/09/13 11:16:14;;;;;;;7.90;2.58;;;22.60;97.00;;;;;;5094367;28;20020;-66
2023/09/13 11:18:51;;;;;;;7.15;2.08;;;22.80;97.20;;;;;;5092131;28;20032;-65
2023/09/13 11:21:24;;;;;;;8.15;2.33;;;23.60;96.30;;;;;;5094028;28;20039;-66
2023/09/13 11:23:52;;;;;;;6.57;2.17;;;24.80;94.40;;;;;;5111274;28;20040;-67
2023/09/13 11:26:50;;;;;;;6.90;2.22;;;25.30;93.30;;;;;;5114543;28;20034;-66
2023/09/13 11:29:25;;;;;;;7.38;2.10;;;25.30;93.10;;;;;;5114582;28;20068;-66
2023/09/13 11:32:01;;;;;;;10.27;2.22;;;25.20;92.60;;;;;;5114487;28;20043;-66
2023/09/13 11:34:26;;;;;;;5.47;2.03;;;25.10;92.90;;;;;;5113535;28;20537;-66
2023/09/13 11:36:59;;;;;;;8.13;2.10;;;25.10;92.30;;;;;;5114272;28;20055;-66
2023/09/13 11:39:24;;;;;;;6.22;2.03;;;24.90;92.40;;;;;;5114431;28;20126;-68
2023/09/13 11:41:55;;;;;;;4.55;1.65;;;24.80;93.00;;;;;;5114443;28;20568;-66
2023/09/13 11:44:22;;;;;;;5.85;1.88;;;25.30;92.00;;;;;;5113957;28;20048;-67
2023/09/13 11:46:49;;;;;;;4.95;2.30;;;25.60;92.10;;;;;;5114374;28;20459;-66
2023/09/13 11:49:23;;;;;;;6.32;2.38;;;26.00;92.00;;;;;;5114035;28;20028;-68
2023/09/13 11:52:00;;;;;;;4.18;2.05;;;26.90;91.30;;;;;;5112948;28;20051;-68
2023/09/13 11:54:26;;;;;;;4.55;2.05;;;27.60;90.40;;;;;;5109661;28;20109;-67
2023/09/13 11:56:53;;;;;;;7.90;2.28;;;27.80;88.80;;;;;;5114274;28;20027;-66
2023/09/13 11:59:30;;;;;;;5.43;2.33;;;27.80;88.50;;;;;;5113960;28;20023;-66
2023/09/13 12:01:56;;;;;;;10.20;2.90;;;27.60;89.20;;;;;;5114210;28;20036;-66
2023/09/13 12:04:25;;;;;;;6.97;1.95;;;27.30;89.60;;;;;;5112081;28;20040;-67
2023/09/13 12:06:54;;;;;;;6.07;1.92;;;27.40;88.40;;;;;;5112625;28;20054;-66
2023/09/13 12:09:21;;;;;;;5.57;2.22;;;27.60;87.40;;;;;;5112478;28;20045;-67
2023/09/13 12:11:49;;;;;;;9.13;2.92;;;27.70;86.90;;;;;;5111079;28;20042;-67
2023/09/13 12:14:16;;;;;;;7.40;2.58;;;27.60;87.90;;;;;;5111708;28;20032;-67
2023/09/13 12:16:42;;;;;;;6.15;2.20;;;27.80;87.60;;;;;;5112758;28;20047;-66
2023/09/13 12:19:10;;;;;;;6.22;2.30;;;28.10;87.40;;;;;;5113438;28;20080;-66
2023/09/13 12:21:36;;;;;;;7.38;2.58;;;28.20;86.90;;;;;;5113664;28;20043;-66
2023/09/13 12:24:02;;;;;;;8.48;2.22;;;28.20;86.80;;;;;;5112555;28;20388;-67
2023/09/13 12:26:28;;;;;;;5.72;2.20;;;28.20;86.50;;;;;;5113219;28;20034;-67
2023/09/13 12:28:54;;;;;;;5.75;2.00;;;28.10;87.10;;;;;;5112073;28;20028;-67
2023/09/13 12:31:20;;;;;;;5.28;2.03;;;28.10;86.70;;;;;;5109949;28;20027;-66
2023/09/13 12:33:48;;;;;;;7.88;2.33;;;28.20;86.80;;;;;;5110398;28;20369;-66
2023/09/13 12:36:14;;;;;;;5.22;2.00;;;28.40;86.30;;;;;;5110561;28;20024;-67
2023/09/13 12:38:43;;;;;;;5.38;2.05;;;28.20;84.90;;;;;;5108778;28;20404;-65
2023/09/13 12:41:13;;;;;;;8.57;2.40;;;27.70;86.10;;;;;;5111743;28;20461;-66
2023/09/13 12:43:45;;;;;;;5.00;1.92;;;26.90;86.60;;;;;;5107589;28;20519;-67
2023/09/13 12:46:13;;;;;;;;;;;26.20;88.70;;;;;;5110652;28;20069;-66